createdAt,value
2019-04-21T00:00:00.478Z,99.90
2019-04-21T00:02:32.885Z,99.90
2019-04-21T00:05:22.878Z,99.90
2019-04-21T00:07:52.778Z,99.90
2019-04-21T00:10:30.147Z,99.90
2019-04-21T00:12:53.444Z,99.90
2019-04-21T00:18:00.614Z,99.90
2019-04-21T00:20:33.109Z,99.90
2019-04-21T00:23:13.085Z,99.90
2019-04-21T00:26:01.924Z,99.90
2019-04-21T00:28:42.489Z,99.90
2019-04-21T00:31:12.597Z,99.90
2019-04-21T00:33:30.034Z,99.90
2019-04-21T00:36:07.526Z,99.90
2019-04-21T00:39:02.379Z,99.90
2019-04-21T00:41:19.327Z,99.90
2019-04-21T00:43:44.866Z,99.90
2019-04-21T00:46:12.110Z,99.90
2019-04-21T00:48:54.019Z,99.90
2019-04-21T00:52:09.339Z,99.90
2019-04-21T00:54:51.659Z,99.90
2019-04-21T00:57:19.610Z,99.90
2019-04-21T00:59:48.015Z,99.90
2019-04-21T01:05:21.422Z,99.90
2019-04-21T01:07:47.002Z,99.90
2019-04-21T01:10:09.147Z,99.90
2019-04-21T01:12:49.513Z,99.90
2019-04-21T01:15:27.639Z,99.90
2019-04-21T01:17:51.971Z,99.90
2019-04-21T01:34:15.331Z,99.90
2019-04-21T01:36:45.470Z,99.90
2019-04-21T01:39:19.698Z,99.90
2019-04-21T01:41:55.414Z,99.90
2019-04-21T01:44:19.743Z,99.90
2019-04-21T01:46:45.867Z,99.90
2019-04-21T01:49:43.139Z,99.90
2019-04-21T01:52:31.143Z,99.90
2019-04-21T01:55:12.349Z,99.90
2019-04-21T01:57:46.109Z,99.90
2019-04-21T02:00:12.512Z,99.90
2019-04-21T02:02:54.200Z,99.90
2019-04-21T02:05:28.469Z,99.90
2019-04-21T02:07:49.438Z,99.90
2019-04-21T02:10:28.065Z,99.90
2019-04-21T02:12:50.891Z,99.90
2019-04-21T02:15:23.924Z,99.90
2019-04-21T02:17:52.028Z,99.90
2019-04-21T02:20:12.296Z,99.90
2019-04-21T02:23:06.019Z,99.90
2019-04-21T02:25:20.076Z,99.90
2019-04-21T02:27:57.537Z,99.90
2019-04-21T02:30:36.502Z,99.90
2019-04-21T02:36:02.785Z,99.90
2019-04-21T02:38:08.846Z,99.90
2019-04-21T02:45:56.325Z,99.90
2019-04-21T02:48:38.850Z,99.90
2019-04-21T02:51:19.397Z,99.90
2019-04-21T02:54:31.830Z,99.90
2019-04-21T02:56:28.430Z,99.90
2019-04-21T02:59:15.029Z,99.90
2019-04-21T03:01:56.693Z,99.90
2019-04-21T03:04:38.504Z,99.90
2019-04-21T03:09:50.579Z,99.90
2019-04-21T03:12:22.709Z,99.90
2019-04-21T03:15:15.948Z,99.90
2019-04-21T03:27:41.126Z,99.90
2019-04-21T03:29:59.279Z,99.90
2019-04-21T03:33:14.025Z,99.90
2019-04-21T03:35:37.884Z,99.90
2019-04-21T03:40:28.626Z,99.90
2019-04-21T03:43:04.515Z,99.90
2019-04-21T03:48:01.292Z,99.90
2019-04-21T03:50:56.652Z,99.90
2019-04-21T03:53:02.952Z,99.90
2019-04-21T04:01:02.910Z,99.90
2019-04-21T04:06:19.440Z,99.90
2019-04-21T04:09:09.574Z,99.90
2019-04-21T04:11:38.090Z,99.90
2019-04-21T04:14:18.507Z,99.90
2019-04-21T04:17:04.692Z,99.90
2019-04-21T04:19:37.976Z,99.90
2019-04-21T04:22:14.663Z,99.90
2019-04-21T04:24:55.542Z,99.90
2019-04-21T04:27:33.784Z,99.90
2019-04-21T04:29:51.311Z,99.90
2019-04-21T04:32:23.679Z,99.90
2019-04-21T04:34:57.282Z,99.90
2019-04-21T04:37:36.225Z,99.90
2019-04-21T04:40:10.646Z,99.90
2019-04-21T04:45:17.732Z,99.90
2019-04-21T04:47:37.079Z,99.90
2019-04-21T04:50:24.442Z,99.90
2019-04-21T05:00:58.042Z,99.90
2019-04-21T05:03:31.776Z,99.90
2019-04-21T05:09:09.424Z,99.90
2019-04-21T05:23:40.033Z,99.90
2019-04-21T05:29:01.749Z,99.90
2019-04-21T05:31:50.267Z,99.90
2019-04-21T05:34:27.671Z,99.90
2019-04-21T05:37:14.201Z,99.90
2019-04-21T05:40:03.150Z,99.90
2019-04-21T05:42:35.378Z,99.90
2019-04-21T05:45:22.527Z,99.90
2019-04-21T05:48:17.888Z,99.90
2019-04-21T05:50:40.046Z,99.90
2019-04-21T05:53:20.949Z,99.90
2019-04-21T05:55:51.768Z,99.90
2019-04-21T05:58:12.099Z,99.90
2019-04-21T06:03:44.530Z,99.90
2019-04-21T06:06:27.505Z,99.90
2019-04-21T06:09:11.170Z,99.90
2019-04-21T06:11:42.334Z,99.90
2019-04-21T06:14:14.181Z,99.90
2019-04-21T06:16:48.196Z,99.90
2019-04-21T06:19:29.302Z,99.90
2019-04-21T06:21:45.436Z,99.90
2019-04-21T06:24:17.370Z,99.90
2019-04-21T06:29:20.019Z,99.90
2019-04-21T06:32:16.741Z,99.90
2019-04-21T06:34:17.106Z,99.90
2019-04-21T06:37:32.665Z,99.90
2019-04-21T06:39:59.639Z,99.90
2019-04-21T06:42:09.677Z,99.90
2019-04-21T06:44:54.652Z,99.90
2019-04-21T06:47:26.031Z,99.90
2019-04-21T06:49:45.163Z,99.90
2019-04-21T06:52:33.463Z,99.90
2019-04-21T06:54:50.747Z,99.90
2019-04-21T06:57:18.675Z,99.90
2019-04-21T06:59:46.543Z,99.90
2019-04-21T07:04:50.113Z,99.90
2019-04-21T07:07:19.059Z,99.90
2019-04-21T07:09:53.077Z,99.90
2019-04-21T07:12:12.335Z,99.90
2019-04-21T07:17:54.748Z,96.90
2019-04-21T07:20:31.448Z,97.60
2019-04-21T07:23:22.481Z,96.90
2019-04-21T07:25:45.826Z,96.30
2019-04-21T07:28:10.934Z,96.00
2019-04-21T07:30:43.625Z,95.30
2019-04-21T07:33:37.547Z,94.70
2019-04-21T07:35:45.794Z,94.60
2019-04-21T07:38:15.029Z,94.30
2019-04-21T07:40:40.041Z,93.30
2019-04-21T07:43:15.228Z,92.90
2019-04-21T07:45:40.102Z,92.10
2019-04-21T07:48:19.265Z,92.60
2019-04-21T07:53:59.910Z,90.50
2019-04-21T07:56:07.349Z,90.70
2019-04-21T07:58:58.889Z,90.10
2019-04-21T08:01:24.266Z,88.20
2019-04-21T08:03:51.981Z,88.20
2019-04-21T08:06:28.388Z,86.70
2019-04-21T08:08:57.881Z,85.40
2019-04-21T08:11:19.478Z,84.80
2019-04-21T08:13:53.302Z,84.00
2019-04-21T08:16:28.549Z,84.00
2019-04-21T08:18:53.583Z,84.70
2019-04-21T08:21:20.624Z,83.20
2019-04-21T08:23:49.363Z,81.40
2019-04-21T08:26:29.198Z,81.80
2019-04-21T08:29:20.287Z,80.50
2019-04-21T08:31:56.499Z,79.10
2019-04-21T08:34:21.548Z,78.40
2019-04-21T08:36:46.208Z,79.10
2019-04-21T08:39:49.400Z,76.80
2019-04-21T08:42:23.810Z,76.70
2019-04-21T08:44:47.867Z,77.40
2019-04-21T08:47:22.068Z,78.60
2019-04-21T08:49:49.981Z,78.20
2019-04-21T08:52:28.473Z,79.00
2019-04-21T08:54:55.743Z,79.60
2019-04-21T08:57:50.481Z,78.80
2019-04-21T09:00:19.858Z,77.30
2019-04-21T09:02:52.486Z,76.00
2019-04-21T09:05:17.736Z,76.90
2019-04-21T09:07:50.932Z,76.00
2019-04-21T09:10:22.313Z,76.40
2019-04-21T09:12:50.484Z,74.00
2019-04-21T09:15:18.984Z,72.70
2019-04-21T09:17:44.584Z,72.00
2019-04-21T09:22:49.297Z,70.60
2019-04-21T09:25:28.613Z,70.70
2019-04-21T09:27:55.606Z,69.20
2019-04-21T09:30:15.169Z,63.50
2019-04-21T09:32:54.470Z,59.60
2019-04-21T09:35:27.044Z,59.30
2019-04-21T09:38:03.950Z,55.90
2019-04-21T09:40:33.946Z,53.00
2019-04-21T09:43:03.184Z,50.80
2019-04-21T09:45:28.609Z,50.50
2019-04-21T09:48:05.451Z,49.80
2019-04-21T09:50:27.462Z,49.30
2019-04-21T09:53:04.049Z,53.40
2019-04-21T09:55:37.828Z,49.10
2019-04-21T09:58:09.243Z,46.10
2019-04-21T10:00:31.466Z,47.10
2019-04-21T10:03:06.102Z,49.80
2019-04-21T10:05:29.745Z,51.00
2019-04-21T10:08:05.778Z,50.50
2019-04-21T10:10:38.319Z,48.60
2019-04-21T10:13:15.097Z,47.10
2019-04-21T10:15:50.089Z,46.20
2019-04-21T10:18:33.764Z,47.70
2019-04-21T10:21:03.231Z,46.40
2019-04-21T10:23:32.063Z,43.10
2019-04-21T10:26:00.871Z,44.20
2019-04-21T10:28:37.175Z,44.30
2019-04-21T10:31:24.833Z,45.50
2019-04-21T10:33:54.708Z,45.20
2019-04-21T10:36:23.129Z,44.90
2019-04-21T10:38:57.161Z,46.30
2019-04-21T10:41:27.476Z,36.60
2019-04-21T10:44:00.996Z,34.40
2019-04-21T10:46:30.727Z,34.80
2019-04-21T10:48:59.309Z,31.20
2019-04-21T10:51:28.765Z,33.20
2019-04-21T10:53:57.976Z,34.00
2019-04-21T10:56:30.691Z,33.80
2019-04-21T10:58:56.779Z,32.00
2019-04-21T11:01:27.383Z,32.00
2019-04-21T11:03:58.478Z,31.70
2019-04-21T11:06:28.745Z,31.80
2019-04-21T11:08:59.502Z,33.20
2019-04-21T11:11:28.014Z,31.40
2019-04-21T11:13:56.787Z,31.40
2019-04-21T11:16:25.337Z,30.70
2019-04-21T11:18:55.924Z,31.90
2019-04-21T11:21:24.938Z,33.20
2019-04-21T11:23:54.265Z,31.60
2019-04-21T11:26:24.173Z,31.30
2019-04-21T11:28:52.858Z,32.30
2019-04-21T11:31:22.957Z,32.00
2019-04-21T11:33:53.227Z,32.90
2019-04-21T11:36:22.037Z,32.40
2019-04-21T11:42:00.065Z,32.30
2019-04-21T11:44:29.057Z,31.00
2019-04-21T11:46:58.358Z,31.10
2019-04-21T11:49:29.125Z,34.70
2019-04-21T11:51:58.773Z,32.90
2019-04-21T11:54:28.747Z,32.70
2019-04-21T11:56:58.952Z,31.60
2019-04-21T11:59:29.964Z,31.60
2019-04-21T12:01:59.336Z,30.30
2019-04-21T12:04:29.455Z,30.50
2019-04-21T12:06:59.838Z,31.20
2019-04-21T12:09:29.315Z,31.80
2019-04-21T12:11:59.103Z,30.70
2019-04-21T12:14:28.002Z,31.00
2019-04-21T12:16:57.216Z,30.00
2019-04-21T12:22:26.544Z,29.50
2019-04-21T12:24:53.240Z,30.60
2019-04-21T12:27:22.359Z,31.60
2019-04-21T12:29:51.715Z,30.90
2019-04-21T12:32:42.154Z,30.40
2019-04-21T12:35:17.685Z,31.10
2019-04-21T12:37:56.395Z,31.50
2019-04-21T12:40:26.382Z,30.90
2019-04-21T12:42:56.705Z,30.20
2019-04-21T12:45:26.075Z,32.00
2019-04-21T12:47:55.734Z,30.70
2019-04-21T12:50:25.792Z,30.50
2019-04-21T12:52:55.730Z,29.60
2019-04-21T12:55:30.747Z,29.10
2019-04-21T13:00:36.796Z,30.10
2019-04-21T13:03:25.501Z,31.00
2019-04-21T13:06:16.257Z,32.10
2019-04-21T13:09:27.497Z,29.90
2019-04-21T13:12:15.231Z,29.80
2019-04-21T13:15:25.380Z,29.20
2019-04-21T13:18:14.502Z,29.90
2019-04-21T13:21:03.907Z,29.10
2019-04-21T13:24:11.702Z,28.90
2019-04-21T13:27:03.287Z,28.50
2019-04-21T13:29:50.394Z,27.90
2019-04-21T13:32:40.735Z,29.10
2019-04-21T13:35:29.031Z,29.90
2019-04-21T13:38:23.133Z,29.30
2019-04-21T13:41:36.216Z,28.30
2019-04-21T13:49:53.464Z,29.40
2019-04-21T13:52:36.386Z,29.30
2019-04-21T13:55:16.878Z,29.70
2019-04-21T14:00:47.783Z,29.90
2019-04-21T14:03:29.231Z,28.90
2019-04-21T14:09:07.316Z,29.50
2019-04-21T14:11:52.494Z,29.90
2019-04-21T14:14:36.547Z,29.70
2019-04-21T14:20:01.437Z,29.20
2019-04-21T14:22:44.244Z,29.90
2019-04-21T14:33:59.661Z,30.50
2019-04-21T14:36:41.020Z,29.60
2019-04-21T14:39:24.206Z,30.00
2019-04-21T14:42:06.355Z,30.40
2019-04-21T14:44:49.127Z,29.20
2019-04-21T14:50:42.477Z,29.40
2019-04-21T14:53:25.664Z,28.80
2019-04-21T14:58:59.477Z,29.30
2019-04-21T15:01:41.929Z,27.20
2019-04-21T15:07:07.691Z,28.30
2019-04-21T15:10:15.154Z,28.50
2019-04-21T15:18:26.368Z,28.70
2019-04-21T15:21:11.123Z,28.70
2019-04-21T15:26:34.008Z,28.50
2019-04-21T15:29:15.124Z,29.10
2019-04-21T15:31:56.792Z,27.80
2019-04-21T15:37:26.452Z,28.60
2019-04-21T15:40:18.174Z,29.10
2019-04-21T15:42:50.651Z,27.20
2019-04-21T15:45:30.895Z,27.40
2019-04-21T15:48:12.044Z,27.30
2019-04-21T15:53:41.796Z,27.50
2019-04-21T15:56:24.600Z,27.20
2019-04-21T16:08:14.289Z,27.70
2019-04-21T16:10:59.670Z,28.50
2019-04-21T16:19:16.556Z,26.70
2019-04-21T16:22:00.982Z,26.90
2019-04-21T16:27:31.013Z,27.90
2019-04-21T16:32:54.411Z,27.00
2019-04-21T16:38:19.673Z,26.50
2019-04-21T16:46:56.465Z,26.60
2019-04-21T16:52:27.988Z,27.80
2019-04-21T16:58:14.613Z,26.70
2019-04-21T17:04:12.800Z,28.50
2019-04-21T17:06:42.934Z,27.40
2019-04-21T17:12:48.135Z,27.80
2019-04-21T17:16:12.455Z,27.70
2019-04-21T17:19:14.515Z,27.70
2019-04-21T17:21:55.634Z,27.70
2019-04-21T17:24:44.366Z,29.00
2019-04-21T17:27:33.418Z,28.20
2019-04-21T17:30:42.266Z,28.90
2019-04-21T17:33:31.845Z,28.70
2019-04-21T17:36:21.014Z,29.20
2019-04-21T17:39:09.177Z,29.10
2019-04-21T17:42:11.653Z,30.90
2019-04-21T17:44:41.278Z,29.70
2019-04-21T17:47:33.722Z,31.70
2019-04-21T17:56:41.269Z,34.00
2019-04-21T17:59:27.993Z,32.10
2019-04-21T18:02:05.155Z,34.70
2019-04-21T18:04:51.023Z,33.10
2019-04-21T18:07:29.969Z,35.30
2019-04-21T18:12:52.054Z,35.70
2019-04-21T18:21:08.991Z,38.10
2019-04-21T18:26:54.441Z,37.80
2019-04-21T18:32:24.827Z,39.60
2019-04-21T18:35:19.506Z,40.00
2019-04-21T18:38:14.251Z,40.10
2019-04-21T18:40:53.580Z,40.60
2019-04-21T18:43:56.483Z,41.30
2019-04-21T18:49:18.050Z,43.80
2019-04-21T18:52:16.808Z,43.00
2019-04-21T18:55:04.043Z,44.40
2019-04-21T19:09:14.377Z,46.90
2019-04-21T19:14:39.751Z,46.70
2019-04-21T19:20:16.022Z,48.50
2019-04-21T19:22:48.651Z,49.70
2019-04-21T19:25:38.780Z,50.20
2019-04-21T19:28:16.420Z,51.80
2019-04-21T19:31:11.019Z,52.30
2019-04-21T19:33:36.477Z,53.70
2019-04-21T19:35:59.203Z,52.50
2019-04-21T19:38:58.361Z,53.10
2019-04-21T19:41:52.951Z,52.70
2019-04-21T19:44:38.304Z,53.80
2019-04-21T19:47:24.194Z,54.60
2019-04-21T19:49:49.986Z,53.80
2019-04-21T19:52:33.103Z,55.60
2019-04-21T20:00:22.597Z,56.30
2019-04-21T20:03:10.577Z,56.60
2019-04-21T20:06:08.660Z,57.30
2019-04-21T20:09:24.346Z,57.10
2019-04-21T20:12:09.618Z,57.80
2019-04-21T20:15:11.946Z,60.00
2019-04-21T20:17:53.077Z,62.60
2019-04-21T20:23:31.787Z,64.00
2019-04-21T20:36:21.144Z,69.30
2019-04-21T20:38:57.930Z,71.40
2019-04-21T20:41:48.072Z,73.50
2019-04-21T20:47:35.272Z,72.20
2019-04-21T20:50:29.855Z,72.30
2019-04-21T20:53:14.649Z,73.20
2019-04-21T21:04:25.351Z,76.70
2019-04-21T21:10:20.582Z,82.60
2019-04-21T21:13:06.338Z,82.90
2019-04-21T21:19:23.906Z,85.90
2019-04-21T21:21:40.450Z,89.00
2019-04-21T21:27:14.095Z,91.00
2019-04-21T21:29:57.285Z,93.50
2019-04-21T21:35:34.608Z,93.70
2019-04-21T21:49:52.687Z,97.70
2019-04-21T21:52:35.413Z,98.40
2019-04-21T21:58:01.077Z,99.50
2019-04-21T22:00:41.882Z,99.90
2019-04-21T22:09:34.431Z,99.90
2019-04-21T22:12:20.071Z,99.90
2019-04-21T22:15:08.496Z,99.90
2019-04-21T22:20:52.225Z,99.90
2019-04-21T22:23:23.915Z,99.90
2019-04-21T22:25:57.574Z,99.90
2019-04-21T22:28:58.192Z,99.90
2019-04-21T22:31:41.158Z,99.90
2019-04-21T22:37:39.276Z,99.90
2019-04-21T22:40:20.561Z,99.90
2019-04-21T22:43:07.067Z,99.90
2019-04-21T22:48:23.667Z,99.90
2019-04-21T22:53:47.231Z,99.90
2019-04-21T22:56:30.058Z,99.90
2019-04-21T23:02:28.600Z,99.90
2019-04-21T23:05:07.906Z,99.90
2019-04-21T23:07:55.187Z,99.90
2019-04-21T23:10:31.779Z,99.90
2019-04-21T23:13:19.866Z,99.90
2019-04-21T23:24:54.378Z,99.90
2019-04-21T23:32:40.965Z,99.90
2019-04-21T23:35:22.732Z,99.90
2019-04-21T23:38:10.232Z,99.90
2019-04-21T23:41:17.610Z,99.90
2019-04-21T23:44:04.523Z,99.90
2019-04-21T23:46:42.595Z,99.90
2019-04-21T23:49:22.906Z,99.90
2019-04-21T23:52:05.331Z,99.90
2019-04-21T23:54:51.491Z,99.90
